CheckWX is a tool to help pilots better visualize weather data.  It is not intended as a substitute for an official pre-flight weather briefing.

21:40:00 UTC

KSNA METAR
John Wayne-Orange County Airport
Santa Ana, California, USA
Current

47 mins ago

KSNA 232053Z VRB05KT 10SM FEW050 FEW250 16/03 A3028 RMK AO2 SLP253 T01560028 58014
Observed
Feb-23 @ 20:53 UTC
Wind
  • Variable at 5 KTS
Visibility
10 SM
Flight Rules
VFR
Cloud Levels
  • Few at 5,000' AGL
  • Few at 25,000' AGL
Temperature
16°C / 61°F
Dewpoint
C / 37°F
Humidity
42%
Altimeter
30.28" Hg
Pressure
1025.3 hPa
Previous

2 hours ago

KSNA 231953Z 18009KT 10SM CLR 16/04 A3030 RMK AO2 SLP260 T01610044
Observed
Feb-23 @ 19:53 UTC
Wind
  • 180° at 9 KTS
Visibility
10 SM
Flight Rules
VFR
Cloud Levels
  • Clear skies
Temperature
16°C / 61°F
Dewpoint
C / 39°F
Humidity
45%
Altimeter
30.3" Hg
Pressure
1026 hPa
Previous

3 hours ago

KSNA 231853Z 21003KT 10SM CLR 15/01 A3032 RMK AO2 SLP267 T01500011
Observed
Feb-23 @ 18:53 UTC
Wind
  • 210° at 3 KTS
Visibility
10 SM
Flight Rules
VFR
Cloud Levels
  • Clear skies
Temperature
15°C / 59°F
Dewpoint
C / 34°F
Humidity
39%
Altimeter
30.32" Hg
Pressure
1026.7 hPa